createdAt,value
2023-05-09T00:00:52.978Z,65.69
2023-05-09T00:01:53.154Z,65.69
2023-05-09T00:02:53.421Z,65.69
2023-05-09T00:03:53.611Z,65.49
2023-05-09T00:04:53.800Z,65.59
2023-05-09T00:05:53.996Z,65.59
2023-05-09T00:06:54.276Z,65.59
2023-05-09T00:07:54.432Z,65.69
2023-05-09T00:08:54.606Z,66.03
2023-05-09T00:09:54.752Z,65.93
2023-05-09T00:10:55.021Z,66.03
2023-05-09T00:11:55.197Z,65.93
2023-05-09T00:12:55.461Z,65.83
2023-05-09T00:13:55.625Z,65.80
2023-05-09T00:14:55.801Z,65.93
2023-05-09T00:15:55.958Z,66.13
2023-05-09T00:16:56.264Z,65.93
2023-05-09T00:17:56.416Z,65.83
2023-05-09T00:18:56.673Z,66.03
2023-05-09T00:19:56.852Z,65.93
2023-05-09T00:20:57.102Z,65.93
2023-05-09T00:21:57.257Z,66.03
2023-05-09T00:22:57.548Z,66.03
2023-05-09T00:23:57.720Z,65.93
2023-05-09T00:24:57.878Z,65.93
2023-05-09T00:25:58.037Z,65.93
2023-05-09T00:26:58.220Z,65.93
2023-05-09T00:27:58.379Z,66.03
2023-05-09T00:28:58.565Z,66.03
2023-05-09T00:29:58.719Z,66.13
2023-05-09T00:30:58.986Z,66.13
2023-05-09T00:31:59.172Z,66.13
2023-05-09T00:32:59.415Z,66.03
2023-05-09T00:33:59.588Z,66.24
2023-05-09T00:34:59.756Z,66.24
2023-05-09T00:35:59.898Z,66.24
2023-05-09T00:37:00.170Z,66.57
2023-05-09T00:38:00.349Z,66.67
2023-05-09T00:39:00.545Z,66.78
2023-05-09T00:40:00.700Z,66.67
2023-05-09T00:41:00.873Z,66.78
2023-05-09T00:42:01.033Z,66.57
2023-05-09T00:43:01.322Z,66.57
2023-05-09T00:44:01.517Z,66.88
2023-05-09T00:45:01.689Z,66.67
2023-05-09T00:46:01.885Z,66.78
2023-05-09T00:47:02.131Z,66.88
2023-05-09T00:48:02.314Z,66.67
2023-05-09T00:49:02.510Z,66.78
2023-05-09T00:50:02.631Z,66.57
2023-05-09T00:51:02.918Z,66.67
2023-05-09T00:52:03.096Z,66.57
2023-05-09T00:53:03.372Z,66.57
2023-05-09T00:54:03.556Z,66.57
2023-05-09T00:55:03.717Z,66.47
2023-05-09T00:56:03.899Z,66.37
2023-05-09T00:57:04.054Z,66.27
2023-05-09T00:58:04.236Z,66.37
2023-05-09T00:59:04.432Z,66.27
2023-05-09T01:00:04.623Z,66.06
2023-05-09T01:01:04.918Z,66.27
2023-05-09T01:02:05.055Z,66.27
2023-05-09T01:03:05.290Z,66.37
2023-05-09T01:04:05.486Z,66.27
2023-05-09T01:05:05.627Z,66.16
2023-05-09T01:06:05.798Z,66.06
2023-05-09T01:07:06.080Z,66.16
2023-05-09T01:08:06.369Z,65.96
2023-05-09T01:09:06.537Z,65.86
2023-05-09T01:10:06.706Z,65.65
2023-05-09T01:11:06.989Z,65.65
2023-05-09T01:12:07.150Z,65.55
2023-05-09T01:13:07.497Z,65.75
2023-05-09T01:14:07.685Z,65.96
2023-05-09T01:15:07.853Z,65.78
2023-05-09T01:16:08.138Z,65.89
2023-05-09T01:17:08.289Z,65.45
2023-05-09T01:18:08.482Z,65.55
2023-05-09T01:19:08.637Z,65.24
2023-05-09T01:20:08.787Z,65.34
2023-05-09T01:21:09.058Z,65.48
2023-05-09T01:22:09.214Z,65.37
2023-05-09T01:23:09.492Z,65.68
2023-05-09T01:24:09.657Z,65.48
2023-05-09T01:25:09.822Z,65.58
2023-05-09T01:26:09.976Z,65.04
2023-05-09T01:27:10.138Z,64.94
2023-05-09T01:28:10.297Z,64.73
2023-05-09T01:29:10.593Z,65.04
2023-05-09T01:30:10.752Z,64.97
2023-05-09T01:31:10.953Z,65.07
2023-05-09T01:32:11.083Z,65.17
2023-05-09T01:33:11.305Z,65.17
2023-05-09T01:34:11.435Z,65.07
2023-05-09T01:35:11.695Z,65.07
2023-05-09T01:36:11.832Z,64.97
2023-05-09T01:37:12.002Z,64.86
2023-05-09T01:38:12.181Z,65.07
2023-05-09T01:39:12.379Z,65.07
2023-05-09T01:40:12.520Z,64.97
2023-05-09T01:41:12.807Z,65.07
2023-05-09T01:42:12.979Z,64.86
2023-05-09T01:43:13.158Z,65.27
2023-05-09T01:44:13.407Z,65.07
2023-05-09T01:45:13.815Z,65.07
2023-05-09T01:46:13.794Z,65.27
2023-05-09T01:47:14.054Z,65.07
2023-05-09T01:48:14.219Z,64.97
2023-05-09T01:49:14.405Z,65.10
2023-05-09T01:50:14.600Z,65.20
2023-05-09T01:51:14.759Z,65.30
2023-05-09T01:52:14.934Z,65.30
2023-05-09T01:53:15.182Z,65.10
2023-05-09T01:54:15.469Z,65.00
2023-05-09T01:55:15.779Z,65.10
2023-05-09T01:56:15.903Z,65.10
2023-05-09T01:57:16.182Z,65.20
2023-05-09T01:58:16.349Z,65.30
2023-05-09T01:59:16.648Z,65.30
2023-05-09T02:00:16.822Z,65.00
2023-05-09T02:01:17.188Z,64.89
2023-05-09T02:02:17.277Z,64.79
2023-05-09T02:03:17.462Z,65.00
2023-05-09T02:04:17.654Z,65.00
2023-05-09T02:05:17.955Z,65.00
2023-05-09T02:06:17.988Z,64.59
2023-05-09T02:07:18.282Z,64.89
2023-05-09T02:08:18.455Z,64.69
2023-05-09T02:09:18.851Z,64.59
2023-05-09T02:10:18.956Z,64.48
2023-05-09T02:11:19.225Z,64.38
2023-05-09T02:12:19.399Z,64.28
2023-05-09T02:13:19.672Z,64.17
2023-05-09T02:14:19.836Z,64.38
2023-05-09T02:15:20.100Z,64.38
2023-05-09T02:16:20.768Z,64.07
2023-05-09T02:17:20.502Z,64.17
2023-05-09T02:18:20.688Z,64.48
2023-05-09T02:19:20.874Z,64.48
2023-05-09T02:20:21.021Z,64.41
2023-05-09T02:21:21.297Z,64.31
2023-05-09T02:22:21.770Z,64.20
2023-05-09T02:23:21.840Z,64.20
2023-05-09T02:24:22.029Z,64.31
2023-05-09T02:25:22.235Z,64.31
2023-05-09T02:26:22.416Z,64.20
2023-05-09T02:27:22.592Z,64.41
2023-05-09T02:28:22.759Z,64.10
2023-05-09T02:29:22.948Z,64.00
2023-05-09T02:30:23.141Z,64.20
2023-05-09T02:31:23.319Z,64.20
2023-05-09T02:32:23.445Z,64.20
2023-05-09T02:33:23.732Z,64.31
2023-05-09T02:34:23.899Z,64.20
2023-05-09T02:35:24.187Z,64.10
2023-05-09T02:36:24.370Z,64.31
2023-05-09T02:37:24.630Z,64.20
2023-05-09T02:38:24.809Z,64.41
2023-05-09T02:39:25.006Z,64.23
2023-05-09T02:40:25.173Z,64.34
2023-05-09T02:41:25.359Z,64.34
2023-05-09T02:42:25.609Z,64.13
2023-05-09T02:43:25.745Z,63.79
2023-05-09T02:44:26.028Z,64.10
2023-05-09T02:45:26.202Z,64.10
2023-05-09T02:46:26.552Z,64.34
2023-05-09T02:47:26.687Z,64.34
2023-05-09T02:48:26.838Z,64.23
2023-05-09T02:49:32.390Z,64.23
2023-05-09T02:50:28.275Z,64.13
2023-05-09T02:51:27.469Z,64.13
2023-05-09T02:52:27.659Z,64.13
2023-05-09T02:53:27.969Z,64.23
2023-05-09T02:54:28.077Z,64.13
2023-05-09T02:55:28.255Z,64.13
2023-05-09T02:56:28.417Z,64.23
2023-05-09T02:57:28.692Z,64.34
2023-05-09T02:58:28.865Z,64.34
2023-05-09T02:59:29.161Z,64.34
2023-05-09T03:00:29.314Z,64.54
2023-05-09T03:01:29.664Z,64.64
2023-05-09T03:02:29.855Z,64.57
2023-05-09T03:03:30.084Z,64.78
2023-05-09T03:04:30.169Z,64.98
2023-05-09T03:05:30.333Z,64.78
2023-05-09T03:06:30.510Z,64.98
2023-05-09T03:07:30.784Z,64.78
2023-05-09T03:08:30.967Z,64.78
2023-05-09T03:09:31.137Z,64.78
2023-05-09T03:10:31.297Z,64.98
2023-05-09T03:11:31.593Z,64.78
2023-05-09T03:12:31.760Z,64.98
2023-05-09T03:13:32.048Z,64.57
2023-05-09T03:14:32.229Z,64.67
2023-05-09T03:15:32.424Z,64.67
2023-05-09T03:16:32.587Z,64.57
2023-05-09T03:17:32.931Z,64.98
2023-05-09T03:18:33.075Z,64.98
2023-05-09T03:19:33.268Z,64.78
2023-05-09T03:20:33.441Z,64.98
2023-05-09T03:21:33.727Z,64.88
2023-05-09T03:22:33.889Z,65.09
2023-05-09T03:23:34.189Z,65.09
2023-05-09T03:24:34.360Z,65.09
2023-05-09T03:25:34.529Z,64.88
2023-05-09T03:26:34.683Z,64.78
2023-05-09T03:27:34.968Z,64.78
2023-05-09T03:28:35.138Z,64.88
2023-05-09T03:29:35.324Z,64.88
2023-05-09T03:30:35.508Z,64.98
2023-05-09T03:31:35.757Z,65.19
2023-05-09T03:32:35.971Z,65.09
2023-05-09T03:33:36.145Z,65.39
2023-05-09T03:34:36.338Z,64.98
2023-05-09T03:35:36.520Z,65.09
2023-05-09T03:36:36.702Z,64.88
2023-05-09T03:37:36.973Z,64.88
2023-05-09T03:38:37.134Z,64.98
2023-05-09T03:39:37.429Z,65.09
2023-05-09T03:40:37.596Z,64.98
2023-05-09T03:41:37.886Z,65.09
2023-05-09T03:42:38.064Z,65.19
2023-05-09T03:43:38.354Z,65.09
2023-05-09T03:44:38.566Z,64.98
2023-05-09T03:45:38.720Z,64.98
2023-05-09T03:46:38.901Z,65.39
2023-05-09T03:47:39.115Z,65.19
2023-05-09T03:48:39.265Z,65.19
2023-05-09T03:49:39.553Z,65.39
2023-05-09T03:50:39.758Z,65.39
2023-05-09T03:51:42.172Z,65.29
2023-05-09T03:52:40.062Z,65.29
2023-05-09T03:53:40.357Z,65.39
2023-05-09T03:54:40.519Z,65.29
2023-05-09T03:55:40.732Z,65.39
2023-05-09T03:56:40.894Z,65.39
2023-05-09T03:57:41.179Z,65.19
2023-05-09T03:58:41.368Z,65.19
2023-05-09T03:59:41.646Z,65.19
2023-05-09T04:00:41.843Z,65.19
2023-05-09T04:01:42.055Z,65.09
2023-05-09T04:02:42.419Z,65.19
2023-05-09T04:03:42.475Z,65.19
2023-05-09T04:04:42.700Z,65.19
2023-05-09T04:05:42.898Z,65.19
2023-05-09T04:06:43.091Z,65.60
2023-05-09T04:07:43.251Z,65.29
2023-05-09T04:08:43.605Z,65.29
2023-05-09T04:09:43.785Z,65.50
2023-05-09T04:10:43.959Z,65.29
2023-05-09T04:11:44.254Z,65.39
2023-05-09T04:12:44.513Z,65.39
2023-05-09T04:13:44.651Z,65.60
2023-05-09T04:14:46.848Z,65.60
2023-05-09T04:15:45.149Z,65.70
2023-05-09T04:16:45.526Z,65.50
2023-05-09T04:17:45.758Z,65.60
2023-05-09T04:18:45.920Z,65.70
2023-05-09T04:19:46.299Z,65.50
2023-05-09T04:20:46.357Z,65.39
2023-05-09T04:21:46.644Z,65.50
2023-05-09T04:22:47.107Z,65.26
2023-05-09T04:23:47.031Z,65.16
2023-05-09T04:24:47.208Z,65.26
2023-05-09T04:25:47.369Z,65.16
2023-05-09T04:26:47.672Z,65.36
2023-05-09T04:27:47.830Z,65.26
2023-05-09T04:28:48.018Z,65.36
2023-05-09T04:29:48.231Z,65.36
2023-05-09T04:30:48.439Z,65.26
2023-05-09T04:31:48.766Z,65.16
2023-05-09T04:32:49.045Z,65.67
2023-05-09T04:33:49.110Z,65.36
2023-05-09T04:34:49.290Z,65.26
2023-05-09T04:35:49.448Z,65.47
2023-05-09T04:36:49.744Z,65.47
2023-05-09T04:37:49.913Z,65.36
2023-05-09T04:38:50.065Z,65.36
2023-05-09T04:39:50.223Z,65.16
2023-05-09T04:40:50.389Z,65.16
2023-05-09T04:41:50.544Z,65.47
2023-05-09T04:42:50.828Z,65.57
2023-05-09T04:43:50.976Z,65.33
2023-05-09T04:44:51.249Z,65.23
2023-05-09T04:45:51.446Z,65.12
2023-05-09T04:46:51.611Z,65.33
2023-05-09T04:47:51.787Z,65.33
2023-05-09T04:48:51.932Z,65.23
2023-05-09T04:49:52.097Z,65.12
2023-05-09T04:50:52.379Z,65.33
2023-05-09T04:51:52.548Z,65.12
2023-05-09T04:52:52.708Z,65.03
2023-05-09T04:53:53.011Z,65.12
2023-05-09T04:54:53.078Z,64.82
2023-05-09T04:55:53.254Z,64.92
2023-05-09T04:56:57.880Z,64.82
2023-05-09T04:57:54.621Z,64.92
2023-05-09T04:58:53.789Z,64.92
2023-05-09T04:59:53.946Z,65.00
2023-05-09T05:00:54.254Z,64.79
2023-05-09T05:01:54.464Z,64.59
2023-05-09T05:02:54.688Z,64.59
2023-05-09T05:03:54.766Z,64.69
2023-05-09T05:05:06.283Z,64.38
2023-05-09T05:05:56.274Z,64.69
2023-05-09T05:06:55.598Z,64.65
2023-05-09T05:07:55.749Z,64.45
2023-05-09T05:08:56.015Z,63.94
2023-05-09T05:09:56.168Z,63.94
2023-05-09T05:10:56.457Z,63.94
2023-05-09T05:12:01.853Z,64.04
2023-05-09T05:12:57.804Z,64.04
2023-05-09T05:13:56.977Z,63.84
2023-05-09T05:14:57.121Z,63.73
2023-05-09T05:15:57.311Z,63.53
2023-05-09T05:16:57.481Z,63.43
2023-05-09T05:17:57.691Z,63.53
2023-05-09T05:18:57.838Z,63.53
2023-05-09T05:19:58.008Z,63.50
2023-05-09T05:20:58.174Z,63.09
2023-05-09T05:21:58.326Z,63.20
2023-05-09T05:22:58.604Z,62.88
2023-05-09T05:23:58.760Z,62.78
2023-05-09T05:24:59.042Z,63.26
2023-05-09T05:25:59.223Z,62.14
2023-05-09T05:26:59.385Z,62.37
2023-05-09T05:27:59.541Z,62.45
2023-05-09T05:28:59.834Z,62.27
2023-05-09T05:29:59.924Z,62.35
2023-05-09T05:31:00.135Z,62.14
2023-05-09T05:32:00.439Z,62.55
2023-05-09T05:33:00.559Z,61.93
2023-05-09T05:34:00.708Z,62.14
2023-05-09T05:35:00.876Z,61.63
2023-05-09T05:36:01.022Z,61.70
2023-05-09T05:37:01.184Z,61.60
2023-05-09T05:38:01.349Z,61.19
2023-05-09T05:39:01.550Z,61.29
2023-05-09T05:40:01.709Z,61.40
2023-05-09T05:41:01.861Z,61.29
2023-05-09T05:42:02.019Z,60.68
2023-05-09T05:43:02.280Z,61.06
2023-05-09T05:44:02.445Z,60.65
2023-05-09T05:45:02.704Z,60.35
2023-05-09T05:46:02.898Z,60.03
2023-05-09T05:47:03.053Z,60.42
2023-05-09T05:48:03.243Z,60.42
2023-05-09T05:49:03.400Z,60.21
2023-05-09T05:50:03.601Z,59.78
2023-05-09T05:51:03.773Z,59.78
2023-05-09T05:52:03.944Z,59.67
2023-05-09T05:53:04.176Z,59.47
2023-05-09T05:54:04.293Z,59.47
2023-05-09T05:55:04.465Z,59.14
2023-05-09T05:56:04.618Z,58.73
2023-05-09T05:57:04.780Z,59.11
2023-05-09T05:58:04.934Z,58.09
2023-05-09T05:59:05.085Z,57.45
2023-05-09T06:00:05.245Z,56.24
2023-05-09T06:01:05.421Z,54.85
2023-05-09T06:02:05.601Z,52.68
2023-05-09T06:03:05.855Z,51.82
2023-05-09T06:04:06.038Z,50.88
2023-05-09T06:05:06.196Z,50.04
2023-05-09T06:06:06.356Z,49.84
2023-05-09T06:07:06.509Z,49.39
2023-05-09T06:08:06.670Z,48.63
2023-05-09T06:09:06.806Z,47.80
2023-05-09T06:10:07.049Z,47.82
2023-05-09T06:11:07.140Z,47.85
2023-05-09T06:12:07.265Z,48.25
2023-05-09T06:13:07.426Z,48.23
2023-05-09T06:14:07.522Z,47.72
2023-05-09T06:15:07.757Z,46.87
2023-05-09T06:16:18.076Z,46.48
2023-05-09T06:17:09.103Z,47.02
2023-05-09T06:18:08.247Z,47.44
2023-05-09T06:19:08.447Z,48.03
2023-05-09T06:20:08.562Z,47.31
2023-05-09T06:21:08.668Z,46.89
2023-05-09T06:22:08.773Z,46.89
2023-05-09T06:23:08.886Z,47.19
2023-05-09T06:24:16.670Z,46.87
2023-05-09T06:25:10.693Z,45.89
2023-05-09T06:26:09.332Z,44.96
2023-05-09T06:27:09.462Z,44.01
2023-05-09T06:28:09.585Z,44.35
2023-05-09T06:29:09.744Z,44.56
2023-05-09T06:31:10.146Z,43.71
2023-05-09T06:32:10.230Z,44.25
2023-05-09T06:33:10.333Z,44.86
2023-05-09T06:34:10.442Z,44.19
2023-05-09T06:35:10.559Z,43.69
2023-05-09T06:36:10.678Z,43.38
2023-05-09T06:37:10.775Z,44.13
2023-05-09T06:38:10.889Z,44.11
2023-05-09T06:39:11.018Z,43.79
2023-05-09T06:40:11.122Z,43.69
2023-05-09T06:41:11.369Z,43.51
2023-05-09T06:42:11.456Z,44.23
2023-05-09T06:43:11.557Z,43.59
2023-05-09T06:44:11.651Z,43.60
2023-05-09T06:45:11.816Z,43.48
2023-05-09T06:46:11.942Z,43.73
2023-05-09T06:47:12.046Z,42.90
2023-05-09T06:48:12.166Z,43.10
2023-05-09T06:49:12.294Z,43.63
2023-05-09T06:50:12.404Z,43.73
2023-05-09T06:51:12.521Z,43.51
2023-05-09T06:52:12.594Z,43.38
2023-05-09T06:53:12.792Z,42.98
2023-05-09T06:54:12.866Z,43.08
2023-05-09T06:55:13.332Z,43.60
2023-05-09T06:56:13.173Z,44.23
2023-05-09T06:57:13.233Z,43.79
2023-05-09T06:58:13.318Z,43.51
2023-05-09T06:59:13.401Z,43.60
2023-05-09T07:00:13.468Z,43.87
2023-05-09T07:01:13.585Z,43.20
2023-05-09T07:02:13.613Z,43.73
2023-05-09T07:03:13.687Z,43.80
2023-05-09T07:04:13.766Z,43.10
2023-05-09T07:05:14.012Z,44.03
2023-05-09T07:06:13.927Z,43.80
2023-05-09T07:07:14.007Z,44.13
2023-05-09T07:08:14.078Z,44.23
2023-05-09T07:09:14.159Z,44.34
2023-05-09T07:10:14.349Z,43.46
2023-05-09T07:11:14.392Z,42.86
2023-05-09T07:12:15.032Z,42.76
2023-05-09T07:13:14.597Z,42.55
2023-05-09T07:14:14.651Z,42.35
2023-05-09T07:15:20.397Z,42.54
2023-05-09T07:16:15.838Z,41.93
2023-05-09T07:17:22.742Z,41.91
2023-05-09T07:18:15.971Z,41.73
2023-05-09T07:19:15.058Z,42.27
2023-05-09T07:20:15.089Z,42.55
2023-05-09T07:21:15.290Z,41.45
2023-05-09T07:22:15.381Z,41.63
2023-05-09T07:23:15.519Z,41.31
2023-05-09T07:24:15.572Z,41.19
2023-05-09T07:25:15.923Z,41.41
2023-05-09T07:26:15.788Z,41.51
2023-05-09T07:27:15.957Z,42.05
2023-05-09T07:28:16.012Z,42.27
2023-05-09T07:29:16.166Z,42.55
2023-05-09T07:30:16.426Z,42.78
2023-05-09T07:31:16.400Z,42.54
2023-05-09T07:32:16.491Z,41.85
2023-05-09T07:33:16.531Z,43.10
2023-05-09T07:34:16.612Z,43.00
2023-05-09T07:35:16.961Z,42.76
2023-05-09T07:36:16.826Z,42.18
2023-05-09T07:37:17.041Z,43.08
2023-05-09T07:38:17.122Z,42.46
2023-05-09T07:39:17.279Z,41.81
2023-05-09T07:40:17.592Z,40.82
2023-05-09T07:41:17.471Z,42.07
2023-05-09T07:42:17.540Z,42.47
2023-05-09T07:43:17.648Z,42.49
2023-05-09T07:44:17.703Z,42.61
2023-05-09T07:45:19.373Z,43.12
2023-05-09T07:46:17.922Z,42.19
2023-05-09T07:47:18.029Z,42.27
2023-05-09T07:48:18.076Z,41.87
2023-05-09T07:49:18.126Z,41.45
2023-05-09T07:50:18.175Z,41.85
2023-05-09T07:51:18.253Z,42.05
2023-05-09T07:52:18.329Z,42.40
2023-05-09T07:53:18.374Z,42.38
2023-05-09T07:54:18.436Z,42.19
2023-05-09T07:55:18.664Z,42.68
2023-05-09T07:56:18.563Z,42.38
2023-05-09T07:57:18.719Z,42.46
2023-05-09T07:58:18.759Z,42.66
2023-05-09T07:59:18.810Z,42.61
2023-05-09T08:00:18.851Z,40.89
2023-05-09T08:01:18.921Z,41.49
2023-05-09T08:02:19.016Z,40.44
2023-05-09T08:03:19.146Z,40.26
2023-05-09T08:04:19.117Z,40.46
2023-05-09T08:05:19.146Z,39.84
2023-05-09T08:06:19.210Z,39.88
2023-05-09T08:07:19.272Z,40.38
2023-05-09T08:08:19.351Z,40.70
2023-05-09T08:09:19.393Z,40.38
2023-05-09T08:10:19.437Z,39.56
2023-05-09T08:11:19.504Z,39.68
2023-05-09T08:12:19.545Z,39.68
2023-05-09T08:13:19.608Z,40.42
2023-05-09T08:14:19.624Z,40.82
2023-05-09T08:15:19.647Z,40.86
2023-05-09T08:16:19.751Z,41.06
2023-05-09T08:17:19.820Z,40.96
2023-05-09T08:18:19.893Z,40.88
2023-05-09T08:19:19.941Z,40.68
2023-05-09T08:20:19.988Z,40.05
2023-05-09T08:21:22.136Z,39.73
2023-05-09T08:22:20.186Z,39.75
2023-05-09T08:23:20.205Z,40.58
2023-05-09T08:24:20.297Z,40.66
2023-05-09T08:25:20.337Z,41.16
2023-05-09T08:26:20.373Z,40.56
2023-05-09T08:27:20.435Z,40.34
2023-05-09T08:28:21.437Z,40.01
2023-05-09T08:29:20.592Z,39.92
2023-05-09T08:30:20.622Z,39.81
2023-05-09T08:31:20.690Z,39.29
2023-05-09T08:32:20.710Z,38.97
2023-05-09T08:33:20.751Z,38.85
2023-05-09T08:34:20.766Z,39.07
2023-05-09T08:35:20.821Z,39.29
2023-05-09T08:36:20.857Z,39.73
2023-05-09T08:37:20.917Z,40.74
2023-05-09T08:38:20.954Z,38.99
2023-05-09T08:39:21.028Z,39.21
2023-05-09T08:40:21.087Z,38.82
2023-05-09T08:41:21.117Z,39.25
2023-05-09T08:42:21.737Z,39.73
2023-05-09T08:43:21.168Z,39.21
2023-05-09T08:44:21.198Z,39.07
2023-05-09T08:45:21.224Z,38.87
2023-05-09T08:46:21.307Z,38.95
2023-05-09T08:47:21.342Z,38.33
2023-05-09T08:48:21.350Z,38.03
2023-05-09T08:49:21.367Z,39.59
2023-05-09T08:50:21.433Z,39.72
2023-05-09T08:51:21.436Z,39.50
2023-05-09T08:52:21.479Z,40.01
2023-05-09T08:53:21.546Z,39.50
2023-05-09T08:54:22.882Z,39.70
2023-05-09T08:55:21.655Z,40.01
2023-05-09T08:56:21.678Z,39.70
2023-05-09T08:57:21.686Z,39.07
2023-05-09T08:58:21.722Z,38.67
2023-05-09T08:59:21.764Z,38.95
2023-05-09T09:00:22.047Z,38.75
2023-05-09T09:01:21.901Z,38.43
2023-05-09T09:02:21.885Z,38.15
2023-05-09T09:03:21.888Z,39.81
2023-05-09T09:04:21.926Z,40.14
2023-05-09T09:05:39.958Z,39.94
2023-05-09T09:06:23.040Z,40.44
2023-05-09T09:07:22.079Z,39.73
2023-05-09T09:08:22.091Z,40.34
2023-05-09T09:09:22.112Z,39.90
2023-05-09T09:10:22.142Z,39.07
2023-05-09T09:11:22.137Z,38.65
2023-05-09T09:12:22.169Z,38.77
2023-05-09T09:13:22.866Z,39.21
2023-05-09T09:14:22.180Z,39.92
2023-05-09T09:15:22.211Z,39.61
2023-05-09T09:16:22.260Z,39.48
2023-05-09T09:17:22.251Z,38.67
2023-05-09T09:18:22.373Z,39.48
2023-05-09T09:19:22.395Z,39.28
2023-05-09T09:20:22.467Z,39.03
2023-05-09T09:21:22.518Z,38.15
2023-05-09T09:22:22.542Z,38.50
2023-05-09T09:23:22.556Z,39.11
2023-05-09T09:24:22.582Z,38.91
2023-05-09T09:25:22.596Z,39.31
2023-05-09T09:26:22.612Z,38.81
2023-05-09T09:27:22.705Z,39.41
2023-05-09T09:28:22.702Z,38.87
2023-05-09T09:29:22.736Z,37.23
2023-05-09T09:30:22.820Z,36.89
2023-05-09T09:31:22.861Z,36.60
2023-05-09T09:32:34.876Z,37.30
2023-05-09T09:33:22.980Z,37.01
2023-05-09T09:34:23.008Z,36.79
2023-05-09T09:35:23.029Z,37.08
2023-05-09T09:36:23.040Z,36.97
2023-05-09T09:37:23.067Z,36.29
2023-05-09T09:38:23.062Z,36.70
2023-05-09T09:39:23.084Z,37.43
2023-05-09T09:40:23.099Z,36.92
2023-05-09T09:41:23.108Z,37.32
2023-05-09T09:42:23.131Z,37.45
2023-05-09T09:43:23.114Z,38.07
2023-05-09T09:44:23.235Z,37.74
2023-05-09T09:45:23.138Z,38.23
2023-05-09T09:46:23.181Z,37.91
2023-05-09T09:47:23.181Z,37.61
2023-05-09T09:48:23.211Z,37.02
2023-05-09T09:49:23.235Z,37.23
2023-05-09T09:50:23.549Z,37.83
2023-05-09T09:51:23.315Z,37.51
2023-05-09T09:52:23.394Z,37.49
2023-05-09T09:53:23.370Z,37.57
2023-05-09T09:54:23.381Z,36.77
2023-05-09T09:55:23.383Z,37.17
2023-05-09T09:56:23.396Z,36.49
2023-05-09T09:57:23.423Z,36.70
2023-05-09T09:58:23.447Z,37.10
2023-05-09T09:59:23.430Z,36.58
2023-05-09T10:00:23.428Z,36.16
2023-05-09T10:01:23.509Z,36.57
2023-05-09T10:02:23.491Z,36.47
2023-05-09T10:03:23.603Z,35.97
2023-05-09T10:04:23.525Z,35.86
2023-05-09T10:05:23.536Z,35.77
2023-05-09T10:06:23.534Z,36.70
2023-05-09T10:07:23.538Z,37.39
2023-05-09T10:08:23.561Z,36.99
2023-05-09T10:09:23.568Z,36.90
2023-05-09T10:10:23.568Z,37.01
2023-05-09T10:11:23.543Z,36.90
2023-05-09T10:12:23.546Z,36.92
2023-05-09T10:13:23.699Z,37.29
2023-05-09T10:14:23.573Z,36.67
2023-05-09T10:15:23.550Z,36.33
2023-05-09T10:16:35.769Z,36.03
2023-05-09T10:17:24.655Z,35.39
2023-05-09T10:18:23.731Z,35.48
2023-05-09T10:19:23.521Z,34.88
2023-05-09T10:20:23.563Z,35.39
2023-05-09T10:21:23.521Z,35.31
2023-05-09T10:22:23.540Z,35.63
2023-05-09T10:23:23.532Z,36.13
2023-05-09T10:24:23.531Z,37.04
2023-05-09T10:25:23.538Z,35.71
2023-05-09T10:26:23.533Z,35.63
2023-05-09T10:27:23.532Z,35.82
2023-05-09T10:28:23.539Z,35.53
2023-05-09T10:29:23.527Z,36.55
2023-05-09T10:30:23.533Z,36.41
2023-05-09T10:31:23.641Z,35.28
2023-05-09T10:32:23.548Z,34.81
2023-05-09T10:33:23.553Z,35.83
2023-05-09T10:34:23.555Z,35.85
2023-05-09T10:35:23.539Z,36.15
2023-05-09T10:36:23.555Z,35.63
2023-05-09T10:37:23.627Z,35.11
2023-05-09T10:38:23.659Z,34.91
2023-05-09T10:39:23.652Z,34.59
2023-05-09T10:40:23.662Z,34.69
2023-05-09T10:41:24.641Z,34.41
2023-05-09T10:42:23.766Z,35.26
2023-05-09T10:43:23.772Z,36.05
2023-05-09T10:44:23.772Z,35.21
2023-05-09T10:45:23.791Z,34.81
2023-05-09T10:46:23.809Z,34.99
2023-05-09T10:47:23.879Z,34.80
2023-05-09T10:48:23.870Z,34.58
2023-05-09T10:49:23.882Z,34.28
2023-05-09T10:50:23.887Z,34.31
2023-05-09T10:51:23.888Z,35.53
2023-05-09T10:52:23.898Z,35.55
2023-05-09T10:53:23.897Z,35.41
2023-05-09T10:54:23.908Z,35.10
2023-05-09T10:55:23.906Z,34.98
2023-05-09T10:56:23.944Z,34.76
2023-05-09T10:57:23.933Z,33.74
2023-05-09T10:58:23.974Z,32.91
2023-05-09T10:59:23.968Z,33.66
2023-05-09T11:00:23.960Z,34.59
2023-05-09T11:01:23.971Z,34.49
2023-05-09T11:02:23.989Z,33.67
2023-05-09T11:03:24.080Z,33.87
2023-05-09T11:04:24.061Z,33.49
2023-05-09T11:05:24.049Z,34.41
2023-05-09T11:06:24.060Z,33.86
2023-05-09T11:07:24.089Z,33.64
2023-05-09T11:08:24.119Z,33.04
2023-05-09T11:09:24.130Z,33.21
2023-05-09T11:10:24.161Z,32.81
2023-05-09T11:11:24.160Z,33.33
2023-05-09T11:12:24.194Z,33.74
2023-05-09T11:13:24.351Z,33.26
2023-05-09T11:14:24.255Z,34.08
2023-05-09T11:15:24.253Z,33.64
2023-05-09T11:16:24.318Z,33.64
2023-05-09T11:17:24.347Z,33.33
2023-05-09T11:18:24.350Z,32.68
2023-05-09T11:19:24.388Z,32.38
2023-05-09T11:20:24.403Z,32.26
2023-05-09T11:21:24.438Z,32.17
2023-05-09T11:22:24.423Z,31.98
2023-05-09T11:23:24.429Z,32.12
2023-05-09T11:24:24.465Z,32.56
2023-05-09T11:25:24.477Z,32.84
2023-05-09T11:26:24.530Z,32.32
2023-05-09T11:27:24.571Z,32.43
2023-05-09T11:28:24.547Z,32.84
2023-05-09T11:29:24.568Z,32.31
2023-05-09T11:30:24.586Z,32.20
2023-05-09T11:31:24.694Z,32.68
2023-05-09T11:32:24.645Z,32.70
2023-05-09T11:33:24.663Z,33.38
2023-05-09T11:34:24.668Z,32.58
2023-05-09T11:35:24.755Z,32.76
2023-05-09T11:36:24.753Z,32.86
2023-05-09T11:37:32.419Z,34.00
2023-05-09T11:38:27.571Z,33.21
2023-05-09T11:39:24.961Z,33.31
2023-05-09T11:40:26.084Z,32.89
2023-05-09T11:41:25.013Z,32.98
2023-05-09T11:42:25.040Z,32.68
2023-05-09T11:43:25.094Z,32.18
2023-05-09T11:44:25.130Z,32.58
2023-05-09T11:45:25.151Z,32.93
2023-05-09T11:46:25.205Z,33.41
2023-05-09T11:47:25.232Z,32.71
2023-05-09T11:48:25.268Z,32.26
2023-05-09T11:49:25.297Z,31.76
2023-05-09T11:50:25.340Z,31.95
2023-05-09T11:51:25.376Z,31.79
2023-05-09T11:52:25.451Z,30.56
2023-05-09T11:53:26.087Z,29.57
2023-05-09T11:54:25.605Z,30.66
2023-05-09T11:55:25.918Z,29.97
2023-05-09T11:56:25.773Z,29.90
2023-05-09T11:57:25.785Z,30.18
2023-05-09T11:58:25.804Z,30.07
2023-05-09T11:59:25.822Z,30.48
2023-05-09T12:00:25.879Z,30.72
2023-05-09T12:01:25.936Z,30.48
2023-05-09T12:02:26.012Z,29.67
2023-05-09T12:03:26.309Z,29.57
2023-05-09T12:04:26.227Z,30.11
2023-05-09T12:05:26.156Z,30.18
2023-05-09T12:06:26.199Z,29.47
2023-05-09T12:07:26.231Z,30.19
2023-05-09T12:08:26.422Z,30.21
2023-05-09T12:09:26.433Z,31.35
2023-05-09T12:10:26.455Z,30.57
2023-05-09T12:11:26.533Z,31.46
2023-05-09T12:12:26.588Z,31.29
2023-05-09T12:13:26.764Z,32.01
2023-05-09T12:14:26.782Z,31.71
2023-05-09T12:15:26.899Z,31.76
2023-05-09T12:16:26.980Z,31.02
2023-05-09T12:17:27.053Z,30.61
2023-05-09T12:18:27.117Z,30.12
2023-05-09T12:19:27.170Z,30.62
2023-05-09T12:20:27.187Z,31.04
2023-05-09T12:21:27.288Z,30.80
2023-05-09T12:22:27.316Z,29.72
2023-05-09T12:23:27.374Z,30.87
2023-05-09T12:24:27.577Z,32.48
2023-05-09T12:25:27.551Z,31.16
2023-05-09T12:26:28.276Z,30.45
2023-05-09T12:27:27.634Z,30.74
2023-05-09T12:28:28.300Z,30.80
2023-05-09T12:29:27.798Z,30.18
2023-05-09T12:30:27.844Z,29.86
2023-05-09T12:31:27.894Z,29.16
2023-05-09T12:32:27.976Z,29.98
2023-05-09T12:33:27.998Z,30.19
2023-05-09T12:34:28.040Z,30.19
2023-05-09T12:35:28.084Z,30.51
2023-05-09T12:36:28.118Z,30.85
2023-05-09T12:37:28.158Z,31.55
2023-05-09T12:38:28.192Z,30.72
2023-05-09T12:39:28.260Z,31.04
2023-05-09T12:40:28.311Z,31.12
2023-05-09T12:41:36.806Z,31.15
2023-05-09T12:42:29.397Z,31.67
2023-05-09T12:43:28.435Z,32.06
2023-05-09T12:44:28.488Z,32.36
2023-05-09T12:45:28.604Z,31.84
2023-05-09T12:46:28.672Z,32.33
2023-05-09T12:47:30.198Z,31.93
2023-05-09T12:48:31.414Z,31.13
2023-05-09T12:49:29.577Z,31.04
2023-05-09T12:50:28.920Z,31.43
2023-05-09T12:51:28.985Z,32.14
2023-05-09T12:52:29.033Z,30.93
2023-05-09T12:53:29.087Z,31.45
2023-05-09T12:54:29.182Z,31.48
2023-05-09T12:55:29.239Z,32.29